CheckWX is a tool to help pilots better visualize weather data.  It is not intended as a substitute for an official pre-flight weather briefing.

14:34:24 UTC

KBDH METAR
Willmar Municipal-John L Rice Field Airport
Willmar, Minnesota, USA
Current

19 mins ago

KBDH 191415Z AUTO 30006KT 10SM CLR M16/M21 A3068 RMK AO2
Observed
Feb-19 @ 14:15 UTC
Wind
  • 300° at 6 KTS
Visibility
10 SM
Flight Rules
VFR
Cloud Levels
  • Clear skies
Temperature
-16°C / 3°F
Dewpoint
-21°C / -6°F
Humidity
66%
Altimeter
30.68" Hg
Pressure
1038.92 hPa
Previous

39 mins ago

KBDH 191355Z AUTO 30007KT 10SM SCT095 M16/M20 A3067 RMK AO2
Observed
Feb-19 @ 13:55 UTC
Wind
  • 300° at 7 KTS
Visibility
10 SM
Flight Rules
VFR
Cloud Levels
  • Scattered at 9,500' AGL
Temperature
-16°C / 3°F
Dewpoint
-20°C / -4°F
Humidity
72%
Altimeter
30.67" Hg
Pressure
1038.62 hPa
Previous

59 mins ago

KBDH 191335Z AUTO 29004KT 10SM BKN095 M16/M20 A3066 RMK AO2
Observed
Feb-19 @ 13:35 UTC
Wind
  • 290° at 4 KTS
Visibility
10 SM
Flight Rules
VFR
Cloud Levels
  • Broken at 9,500' AGL
Temperature
-16°C / 3°F
Dewpoint
-20°C / -4°F
Humidity
72%
Altimeter
30.66" Hg
Pressure
1038.32 hPa